Terminal Aerodrome Forecast
Issued by NWS

Home | Current Version | Previous Version | Text Only | Print | Product List | Glossary On
Versions: 1 2 3 4 5 6 7 8 9 10 11 12 13 14 15 16 17 18 19 20 21 22 23
000
FTUS43 KGRR 282340
TAFLAN
TAF
KLAN 282340Z 2900/2924 06008KT P6SM OVC035
     FM290800 06005KT P6SM -SHRA OVC015
     FM291800 06008KT P6SM OVC025
     FM292000 07007KT P6SM OVC050=

USA.gov is the U.S. government's official web portal to all federal, state and local government web resources and services.